Time;durP1;ratioP1;P1;durP2;ratioP2;P2;SDS_P1;SDS_P2;PMS_P1;PMS_P2;Temp;Humidity;BMP_temperature;BMP_pressure;BME280_temperature;BME280_humidity;BME280_pressure;Samples;Min_cycle;Max_cycle;Signal;HPM_P1;HPM_P2
2024/02/07 00:01:54;;;;;;;;;5.75;5.75;;;;;-143.90;100.00;74676.06;4867769;28;101854;-73
2024/02/07 00:04:21;;;;;;;;;6.75;6.00;;;;;-143.90;100.00;74671.94;4866409;28;102095;-73
2024/02/07 00:06:50;;;;;;;;;2.75;1.25;;;;;-143.90;100.00;74671.94;4861248;28;101966;-72
2024/02/07 00:09:17;;;;;;;;;4.00;4.00;;;;;-143.90;100.00;74671.94;4857411;28;103458;-72
2024/02/07 00:11:43;;;;;;;;;4.00;4.00;;;;;-143.90;100.00;74665.75;4862523;28;101603;-72
2024/02/07 00:14:10;;;;;;;;;4.00;4.00;;;;;-143.90;100.00;74665.75;4870214;28;102009;-71
2024/02/07 00:16:36;;;;;;;;;7.00;4.00;;;;;-143.90;100.00;74667.81;4870640;28;102340;-73
2024/02/07 00:19:04;;;;;;;;;7.25;3.00;;;;;-143.90;100.00;74667.81;4859528;28;103391;-72
2024/02/07 00:21:31;;;;;;;;;4.00;4.00;;;;;-143.90;100.00;74671.94;4867584;28;101811;-73
2024/02/07 00:23:57;;;;;;;;;6.25;4.00;;;;;-143.90;100.00;74680.22;4859047;28;102509;-72
2024/02/07 00:26:25;;;;;;;;;4.50;3.50;;;;;-143.90;100.00;74649.19;4866977;28;101883;-73
2024/02/07 00:28:51;;;;;;;;;8.50;7.00;;;;;-143.90;100.00;74653.34;4867519;28;103786;-72
2024/02/07 00:31:18;;;;;;;;;7.50;6.50;;;;;-143.90;100.00;74659.53;4862223;28;102283;-73
2024/02/07 00:33:45;;;;;;;;;5.00;4.75;;;;;-143.90;100.00;74659.53;4865652;28;103125;-73
2024/02/07 00:36:11;;;;;;;;;3.25;3.25;;;;;-143.90;100.00;74655.41;4861196;28;102772;-73
2024/02/07 00:38:39;;;;;;;;;1.00;1.00;;;;;-143.90;100.00;74649.19;4868238;28;103419;-72
2024/02/07 00:41:05;;;;;;;;;4.00;4.00;;;;;-143.90;100.00;74655.41;4861141;28;101878;-73
2024/02/07 00:43:32;;;;;;;;;5.00;4.00;;;;;-143.90;100.00;74643.00;4868496;28;103181;-72
2024/02/07 00:45:59;;;;;;;;;5.50;4.00;;;;;-143.90;100.00;74649.19;4869227;28;103155;-72
2024/02/07 00:48:26;;;;;;;;;5.00;3.00;;;;;-143.90;100.00;74643.00;4867162;28;103915;-72
2024/02/07 00:50:52;;;;;;;;;7.00;6.00;;;;;-143.90;100.00;74645.06;4862026;28;102696;-72
2024/02/07 00:53:19;;;;;;;;;7.00;5.00;;;;;-143.90;100.00;74647.13;4865011;28;101634;-73
2024/02/07 00:55:46;;;;;;;;;5.25;4.00;;;;;-143.90;100.00;74649.19;4866175;28;102853;-73
2024/02/07 00:58:14;;;;;;;;;6.75;6.00;;;;;-143.90;100.00;74651.28;4864982;28;104832;-72
2024/02/07 01:00:41;;;;;;;;;3.25;2.25;;;;;-143.90;100.00;74638.88;4863199;28;103166;-73
2024/02/07 01:03:09;;;;;;;;;6.00;4.00;;;;;-143.90;100.00;74640.94;4859505;28;102312;-72
2024/02/07 01:05:35;;;;;;;;;4.50;3.50;;;;;-143.90;100.00;74638.88;4872633;28;102003;-72
2024/02/07 01:08:03;;;;;;;;;4.25;3.00;;;;;-143.90;100.00;74645.06;4859587;28;103406;-72
2024/02/07 01:10:30;;;;;;;;;4.50;4.00;;;;;-143.90;100.00;74636.81;4865578;28;101877;-72
2024/02/07 01:12:57;;;;;;;;;6.00;4.50;;;;;-143.90;100.00;74643.00;4862137;28;101609;-72
2024/02/07 01:15:24;;;;;;;;;3.50;3.50;;;;;-143.90;100.00;74632.66;4863123;28;102123;-72
2024/02/07 01:17:50;;;;;;;;;5.00;4.25;;;;;-143.90;100.00;74636.81;4867438;28;103400;-72
2024/02/07 01:20:17;;;;;;;;;4.00;3.00;;;;;-143.90;100.00;74628.53;4863136;28;102158;-72
2024/02/07 01:22:44;;;;;;;;;4.00;3.50;;;;;-143.90;100.00;74630.59;4869704;28;103550;-72
2024/02/07 01:25:10;;;;;;;;;6.00;4.00;;;;;-143.90;100.00;74638.88;4860777;28;103152;-71
2024/02/07 01:27:37;;;;;;;;;3.00;3.00;;;;;-143.90;100.00;74630.59;4865349;28;103429;-72
2024/02/07 01:30:07;;;;;;;;;3.75;3.75;;;;;-143.90;100.00;74636.81;4866146;28;103168;-72
2024/02/07 01:32:33;;;;;;;;;3.50;3.50;;;;;-143.90;100.00;74632.66;4862146;28;101850;-72
2024/02/07 01:35:00;;;;;;;;;4.50;4.00;;;;;-143.90;100.00;74622.34;4851024;28;103138;-72
2024/02/07 01:37:26;;;;;;;;;4.00;2.75;;;;;-143.90;100.00;74622.34;4867059;28;103955;-73
2024/02/07 01:39:53;;;;;;;;;5.00;3.25;;;;;-143.90;100.00;74622.34;4860665;28;101769;-72
2024/02/07 01:42:20;;;;;;;;;7.00;4.75;;;;;-143.90;100.00;74622.34;4865080;28;102175;-72
2024/02/07 01:44:46;;;;;;;;;5.00;4.00;;;;;-143.90;100.00;74634.72;4860170;28;102229;-72
2024/02/07 01:47:13;;;;;;;;;6.25;5.00;;;;;-143.90;100.00;74622.34;4857391;28;103803;-73
2024/02/07 01:49:45;;;;;;;;;4.50;3.50;;;;;-143.90;100.00;74630.59;4860421;28;105094;-73
2024/02/07 01:52:14;;;;;;;;;8.00;5.00;;;;;-143.90;100.00;74618.19;4863025;28;101991;-72
2024/02/07 01:54:41;;;;;;;;;4.00;3.00;;;;;-143.90;100.00;74605.78;4859401;28;103213;-73
2024/02/07 01:57:08;;;;;;;;;3.50;3.25;;;;;-143.90;100.00;74599.59;4863685;28;103472;-73
2024/02/07 01:59:40;;;;;;;;;6.00;6.00;;;;;-143.90;100.00;74616.13;4867401;28;101648;-72
2024/02/07 02:02:07;;;;;;;;;7.75;4.00;;;;;-143.90;100.00;74620.25;4862198;28;102286;-73
2024/02/07 02:04:35;;;;;;;;;7.00;3.00;;;;;-143.90;100.00;74618.19;4866079;28;101872;-73
2024/02/07 02:07:02;;;;;;;;;4.00;4.00;;;;;-143.90;100.00;74609.94;4854817;28;104138;-72
2024/02/07 02:09:29;;;;;;;;;3.50;2.50;;;;;-143.90;100.00;74614.06;4860276;28;101917;-73
2024/02/07 02:11:57;;;;;;;;;5.25;3.50;;;;;-143.90;100.00;74618.19;4862544;28;103279;-72
2024/02/07 02:14:24;;;;;;;;;2.00;2.00;;;;;-143.90;100.00;74609.94;4866111;28;102204;-72
2024/02/07 02:16:51;;;;;;;;;6.00;4.00;;;;;-143.90;100.00;74618.19;4860027;28;103589;-72
2024/02/07 02:19:19;;;;;;;;;5.50;3.50;;;;;-143.90;100.00;74603.72;4845107;28;102325;-73
2024/02/07 02:22:21;;;;;;;;;4.00;3.25;;;;;-143.90;100.00;74607.84;4865894;28;103317;-73
2024/02/07 02:25:18;;;;;;;;;1.00;1.00;;;;;-143.90;100.00;74597.53;4814103;28;102183;-73
2024/02/07 02:28:03;;;;;;;;;4.00;3.00;;;;;-143.90;100.00;74593.38;4859583;28;107816;-74
2024/02/07 02:30:33;;;;;;;;;5.50;4.00;;;;;-143.90;100.00;74589.25;4861157;28;102288;-73
2024/02/07 02:33:08;;;;;;;;;3.00;3.00;;;;;-143.90;100.00;74585.13;4857454;28;101757;-72
2024/02/07 02:35:38;;;;;;;;;3.00;3.00;;;;;-143.90;100.00;74591.31;4862476;28;101608;-72
2024/02/07 02:38:07;;;;;;;;;3.25;3.25;;;;;-143.90;100.00;74593.38;4856271;28;113156;-72
2024/02/07 02:40:34;;;;;;;;;4.50;3.75;;;;;-143.90;100.00;74593.38;4865208;28;103168;-73
2024/02/07 02:43:01;;;;;;;;;6.75;3.00;;;;;-143.90;100.00;74603.72;4861789;28;101683;-73
2024/02/07 02:45:28;;;;;;;;;2.25;2.25;;;;;-143.90;100.00;74601.66;4865872;28;102263;-73
2024/02/07 02:47:54;;;;;;;;;3.75;2.00;;;;;-143.90;100.00;74595.47;4864243;28;107849;-73
2024/02/07 02:50:25;;;;;;;;;4.00;3.00;;;;;-143.90;100.00;74587.19;4868306;28;101760;-72
2024/02/07 02:52:54;;;;;;;;;3.50;3.00;;;;;-143.90;100.00;74597.53;4840366;28;102265;-72
2024/02/07 02:55:21;;;;;;;;;2.00;2.00;;;;;-143.90;100.00;74593.38;4869496;28;101930;-73
2024/02/07 02:57:48;;;;;;;;;7.00;3.00;;;;;-143.90;100.00;74601.66;4863527;28;103428;-72
2024/02/07 03:00:16;;;;;;;;;4.50;3.00;;;;;-143.90;100.00;74601.66;4860894;28;101698;-72
2024/02/07 03:02:43;;;;;;;;;4.00;3.00;;;;;-143.90;100.00;74597.53;4865277;28;101855;-73
2024/02/07 03:08:05;;;;;;;;;3.25;2.75;;;;;-143.90;100.00;74599.59;4866439;28;107881;-73
2024/02/07 03:10:34;;;;;;;;;5.50;3.50;;;;;-143.90;100.00;74603.72;4847035;28;101893;-73
2024/02/07 03:13:01;;;;;;;;;3.25;3.25;;;;;-143.90;100.00;74601.66;4854192;28;102118;-72
2024/02/07 03:15:28;;;;;;;;;3.25;2.75;;;;;-143.90;100.00;74605.78;4865453;28;101907;-72
2024/02/07 03:17:55;;;;;;;;;3.00;3.00;;;;;-143.90;100.00;74605.78;4858817;28;103524;-73
2024/02/07 03:20:22;;;;;;;;;3.00;2.50;;;;;-143.90;100.00;74605.78;4862223;28;102842;-73
2024/02/07 03:22:49;;;;;;;;;3.00;3.00;;;;;-143.90;100.00;74601.66;4859029;28;101678;-72
2024/02/07 03:25:20;;;;;;;;;3.75;1.75;;;;;-143.90;100.00;74601.66;4858030;28;103031;-73
2024/02/07 03:27:48;;;;;;;;;3.75;3.75;;;;;-143.90;100.00;74605.78;4858414;28;103405;-72
2024/02/07 03:30:23;;;;;;;;;2.00;2.00;;;;;-143.90;100.00;74597.53;4861572;28;102387;-72
2024/02/07 03:32:51;;;;;;;;;2.00;2.00;;;;;-143.90;100.00;74597.53;4862284;28;103166;-72
2024/02/07 03:35:20;;;;;;;;;3.25;2.25;;;;;-143.90;100.00;74597.53;4853538;28;101942;-73
2024/02/07 03:37:48;;;;;;;;;2.00;2.00;;;;;-143.90;100.00;74599.59;4865067;28;103654;-72
2024/02/07 03:40:15;;;;;;;;;3.75;2.00;;;;;-143.90;100.00;74593.38;4860500;28;103178;-73
2024/02/07 03:42:43;;;;;;;;;3.25;2.00;;;;;-143.90;100.00;74595.47;4863017;28;102241;-72
2024/02/07 03:45:16;;;;;;;;;2.50;2.50;;;;;-143.90;100.00;74601.66;4860569;28;102419;-74
2024/02/07 03:47:44;;;;;;;;;3.25;2.75;;;;;-143.90;100.00;74597.53;4866497;28;104368;-73
2024/02/07 03:50:11;;;;;;;;;3.25;3.00;;;;;-143.90;100.00;74589.25;4862095;28;103312;-73
2024/02/07 03:52:42;;;;;;;;;4.25;2.50;;;;;-143.90;100.00;74599.59;4863302;28;102175;-73
2024/02/07 03:55:10;;;;;;;;;4.75;3.00;;;;;-143.90;100.00;74605.78;4855839;28;104984;-73
2024/02/07 03:57:37;;;;;;;;;6.75;6.00;;;;;-143.90;100.00;74616.13;4867126;28;108901;-73
2024/02/07 04:00:08;;;;;;;;;4.75;4.00;;;;;-143.90;100.00;74605.78;4862205;28;102136;-73
2024/02/07 04:02:38;;;;;;;;;4.00;3.00;;;;;-143.90;100.00;74603.72;4865101;28;103101;-72
2024/02/07 04:05:07;;;;;;;;;4.00;3.00;;;;;-143.90;100.00;74593.38;4850987;28;102959;-73
2024/02/07 04:07:35;;;;;;;;;3.00;3.00;;;;;-143.90;100.00;74589.25;4867781;28;103377;-74
2024/02/07 04:10:03;;;;;;;;;2.00;2.00;;;;;-143.90;100.00;74597.53;4867281;28;102006;-73
2024/02/07 05:15:33;;;;;;;;;6.00;4.00;;;;;-143.90;100.00;74578.91;4869168;28;101588;-72
2024/02/07 05:18:00;;;;;;;;;7.50;3.25;;;;;-143.90;100.00;74566.53;4872654;28;102188;-73
2024/02/07 05:20:29;;;;;;;;;3.00;2.75;;;;;-143.90;100.00;74566.53;4872042;28;102770;-72
2024/02/07 05:22:57;;;;;;;;;2.00;1.75;;;;;-143.90;100.00;74566.53;4855479;28;103691;-74
2024/02/07 05:25:24;;;;;;;;;2.00;2.00;;;;;-143.90;100.00;74564.44;4862085;28;103208;-71
2024/02/07 05:27:51;;;;;;;;;3.25;2.00;;;;;-143.90;100.00;74560.31;4865883;28;103231;-72
2024/02/07 05:30:18;;;;;;;;;4.00;3.50;;;;;-143.90;100.00;74560.31;4867026;28;102589;-71
2024/02/07 05:32:44;;;;;;;;;3.00;2.75;;;;;-143.90;100.00;74543.78;4861653;28;103451;-71
2024/02/07 05:35:11;;;;;;;;;3.25;3.00;;;;;-143.90;100.00;74543.78;4855498;28;102184;-72
2024/02/07 05:37:38;;;;;;;;;4.00;4.00;;;;;-143.90;100.00;74545.84;4867575;28;102043;-73
2024/02/07 05:40:05;;;;;;;;;6.00;4.00;;;;;-143.90;100.00;74547.91;4868086;28;101732;-72
2024/02/07 05:42:32;;;;;;;;;4.75;4.25;;;;;-143.90;100.00;74535.50;4863327;28;103812;-73
2024/02/07 05:44:59;;;;;;;;;5.00;4.00;;;;;-143.90;100.00;74539.66;4865918;28;102814;-73
2024/02/07 05:47:25;;;;;;;;;6.75;6.00;;;;;-143.90;100.00;74529.31;4863924;28;101928;-72
2024/02/07 05:49:52;;;;;;;;;7.00;4.50;;;;;-143.90;100.00;74527.25;4859432;28;101508;-72
2024/02/07 05:52:20;;;;;;;;;5.00;4.00;;;;;-143.90;100.00;74539.66;4868408;28;103447;-72
2024/02/07 05:54:49;;;;;;;;;5.00;4.00;;;;;-143.90;100.00;74523.09;4865833;28;102036;-71
2024/02/07 05:57:16;;;;;;;;;6.00;4.00;;;;;-143.90;100.00;74523.09;4863480;28;101935;-72
2024/02/07 05:59:42;;;;;;;;;4.00;4.00;;;;;-143.90;100.00;74527.25;4869340;28;102896;-72
2024/02/07 06:02:09;;;;;;;;;7.25;4.00;;;;;-143.90;100.00;74521.03;4869644;28;109991;-72
2024/02/07 06:04:36;;;;;;;;;3.50;2.75;;;;;-143.90;100.00;74521.03;4865047;28;102950;-72
2024/02/07 06:07:03;;;;;;;;;3.50;2.50;;;;;-143.90;100.00;74514.84;4858074;28;102122;-73
2024/02/07 06:09:30;;;;;;;;;5.50;4.50;;;;;-143.90;100.00;74498.31;4865720;28;102081;-72
2024/02/07 06:11:57;;;;;;;;;7.75;6.00;;;;;-143.90;100.00;74502.44;4872281;28;103428;-72
2024/02/07 06:14:23;;;;;;;;;3.75;3.75;;;;;-143.90;100.00;74496.25;4865912;28;103690;-72
2024/02/07 06:16:50;;;;;;;;;3.75;3.25;;;;;-143.90;100.00;74496.25;4864361;28;101619;-72
2024/02/07 06:19:17;;;;;;;;;3.00;3.00;;;;;-143.90;100.00;74510.72;4858350;28;101985;-72
2024/02/07 06:21:45;;;;;;;;;7.00;4.00;;;;;-143.90;100.00;74518.97;4875558;28;103227;-72
2024/02/07 06:24:12;;;;;;;;;6.00;6.00;;;;;-143.90;100.00;74535.50;4874968;28;101819;-72
2024/02/07 06:26:38;;;;;;;;;6.50;4.50;;;;;-143.90;100.00;74543.78;4879360;28;103175;-72
2024/02/07 06:29:05;;;;;;;;;4.50;4.50;;;;;-143.90;100.00;74541.72;4871712;28;101813;-73
2024/02/07 06:31:31;;;;;;;;;5.25;3.50;;;;;-143.90;100.00;74541.72;4876816;28;102752;-72
2024/02/07 06:33:58;;;;;;;;;6.25;5.00;;;;;-143.90;100.00;74521.03;4874650;28;102152;-72
2024/02/07 06:36:25;;;;;;;;;3.50;3.00;;;;;-143.90;100.00;74535.50;4877298;28;101774;-72
2024/02/07 06:38:51;;;;;;;;;5.00;5.00;;;;;-143.90;100.00;74518.97;4871846;28;102254;-72
2024/02/07 06:41:18;;;;;;;;;7.00;7.00;;;;;-143.90;100.00;74518.97;4872777;28;103585;-72
2024/02/07 06:43:44;;;;;;;;;6.50;6.50;;;;;-143.90;100.00;74512.78;4872792;28;101933;-73
2024/02/07 06:46:11;;;;;;;;;6.00;6.00;;;;;-143.90;100.00;74510.72;4875638;28;102100;-72
2024/02/07 06:48:38;;;;;;;;;6.25;4.00;;;;;-143.90;100.00;74506.56;4872440;28;101636;-71
2024/02/07 06:51:05;;;;;;;;;3.00;3.00;;;;;-143.90;100.00;74500.38;4862159;28;103184;-72
2024/02/07 06:53:31;;;;;;;;;5.50;4.00;;;;;-143.90;100.00;74485.91;4869632;28;101728;-71
2024/02/07 06:55:58;;;;;;;;;7.00;4.75;;;;;-143.90;100.00;74477.63;4865751;28;101701;-71
2024/02/07 06:58:29;;;;;;;;;6.00;4.50;;;;;-143.90;100.00;74485.91;4868238;28;101697;-72
2024/02/07 07:00:57;;;;;;;;;5.25;3.00;;;;;-143.90;100.00;74473.50;4859853;28;103321;-71
2024/02/07 07:03:29;;;;;;;;;4.00;3.25;;;;;-143.90;100.00;74481.78;4868982;28;101947;-71
2024/02/07 07:05:57;;;;;;;;;3.75;2.75;;;;;-143.90;100.00;74475.56;4872999;28;101435;-72
2024/02/07 07:08:24;;;;;;;;;3.00;3.00;;;;;-143.90;100.00;74473.50;4877540;28;102293;-72
2024/02/07 07:10:50;;;;;;;;;4.25;3.75;;;;;-143.90;100.00;74459.03;4875255;28;103005;-72
2024/02/07 07:13:17;;;;;;;;;3.75;3.50;;;;;-143.90;100.00;74450.75;4854537;28;102029;-71
2024/02/07 07:15:44;;;;;;;;;6.00;4.00;;;;;-143.90;100.00;74461.09;4880103;28;101985;-71
2024/02/07 07:18:10;;;;;;;;;8.00;4.00;;;;;-143.90;100.00;74465.22;4879693;28;104145;-72
2024/02/07 07:20:37;;;;;;;;;3.00;3.00;;;;;-143.90;100.00;74473.50;4880450;28;104169;-71
2024/02/07 07:23:03;;;;;;;;;3.00;2.00;;;;;-143.90;100.00;74477.63;4871034;28;101633;-72
2024/02/07 07:25:41;;;;;;;;;3.00;2.25;;;;;-143.90;100.00;74487.97;4871849;28;102152;-71
2024/02/07 07:28:08;;;;;;;;;6.00;3.00;;;;;-143.90;100.00;74494.16;4875934;28;102430;-71
2024/02/07 07:30:35;;;;;;;;;5.75;3.25;;;;;-143.90;100.00;74502.44;4872977;28;103370;-71
2024/02/07 07:33:02;;;;;;;;;5.50;4.00;;;;;-143.90;100.00;74494.16;4862755;28;103912;-72
2024/02/07 07:35:29;;;;;;;;;4.00;3.25;;;;;-143.90;100.00;74518.97;4873216;28;104685;-72
2024/02/07 07:37:56;;;;;;;;;6.75;4.00;;;;;-143.90;100.00;74510.72;4875021;28;102716;-71
2024/02/07 07:40:24;;;;;;;;;3.25;3.00;;;;;-143.90;100.00;74510.72;4866331;28;103431;-72
2024/02/07 07:42:50;;;;;;;;;3.00;2.00;;;;;-143.90;100.00;74508.63;4866403;28;101794;-72
2024/02/07 07:45:17;;;;;;;;;6.00;3.50;;;;;-143.90;100.00;74506.56;4870373;28;101761;-72
2024/02/07 07:47:44;;;;;;;;;5.25;4.00;;;;;-143.90;100.00;74508.63;4855461;28;101711;-71
2024/02/07 07:50:10;;;;;;;;;5.00;4.50;;;;;-143.90;100.00;74510.72;4872628;28;108142;-71
2024/02/07 07:52:37;;;;;;;;;4.00;3.00;;;;;-143.90;100.00;74514.84;4867083;28;102165;-72
2024/02/07 07:55:04;;;;;;;;;6.00;6.00;;;;;-143.90;100.00;74508.63;4849566;28;102013;-71
2024/02/07 07:57:30;;;;;;;;;3.25;3.00;;;;;-143.90;100.00;74521.03;4872506;28;101590;-73
2024/02/07 07:59:57;;;;;;;;;5.75;4.00;;;;;-143.90;100.00;74521.03;4873296;28;103431;-72
2024/02/07 08:02:24;;;;;;;;;3.00;3.00;;;;;-143.90;100.00;74523.09;4873011;28;101798;-72
2024/02/07 08:04:50;;;;;;;;;6.50;5.00;;;;;-143.90;100.00;74521.03;4869389;28;101849;-73
2024/02/07 08:07:17;;;;;;;;;6.00;4.00;;;;;-143.90;100.00;74523.09;4856042;28;102089;-73
2024/02/07 08:09:45;;;;;;;;;7.00;5.50;;;;;-143.90;100.00;74531.38;4869506;28;103405;-72
2024/02/07 08:12:14;;;;;;;;;3.00;2.50;;;;;-143.90;100.00;74514.84;4874820;28;103119;-72
2024/02/07 08:14:41;;;;;;;;;4.25;3.75;;;;;-143.90;100.00;74506.56;4869353;28;101922;-72
2024/02/07 08:17:08;;;;;;;;;4.50;4.50;;;;;-143.90;100.00;74506.56;4869309;28;102249;-71
2024/02/07 08:19:35;;;;;;;;;3.00;3.00;;;;;-143.90;100.00;74502.44;4869869;28;103368;-71
2024/02/07 08:22:01;;;;;;;;;2.75;1.75;;;;;-143.90;100.00;74498.31;4872516;28;101883;-72
2024/02/07 08:24:28;;;;;;;;;4.00;3.75;;;;;-143.90;100.00;74518.97;4871155;28;101584;-72
2024/02/07 08:26:55;;;;;;;;;3.50;2.00;;;;;-143.90;100.00;74508.63;4866750;28;102914;-71
2024/02/07 08:29:21;;;;;;;;;4.00;4.00;;;;;-143.90;100.00;74498.31;4872380;28;103667;-72
2024/02/07 08:31:48;;;;;;;;;4.50;3.25;;;;;-143.90;100.00;74502.44;4872146;28;101835;-72
2024/02/07 08:34:15;;;;;;;;;7.75;5.75;;;;;-143.90;100.00;74523.09;4868096;28;102138;-71
2024/02/07 08:36:42;;;;;;;;;6.00;3.00;;;;;-143.90;100.00;74490.03;4871550;28;101938;-71
2024/02/07 08:39:09;;;;;;;;;4.00;4.00;;;;;-143.90;100.00;74500.38;4863152;28;108108;-71
2024/02/07 08:41:38;;;;;;;;;6.00;3.75;;;;;-143.90;100.00;74481.78;4869031;28;101627;-71
2024/02/07 08:44:04;;;;;;;;;4.00;3.00;;;;;-143.90;100.00;74469.38;4870554;28;102145;-72
2024/02/07 08:46:31;;;;;;;;;2.50;2.50;;;;;-143.90;100.00;74461.09;4877166;28;101886;-72
2024/02/07 08:48:58;;;;;;;;;3.50;3.25;;;;;-143.90;100.00;74469.38;4866787;28;103077;-72
2024/02/07 08:51:24;;;;;;;;;1.50;1.00;;;;;-143.90;100.00;74463.16;4869281;28;102910;-72
2024/02/07 08:53:51;;;;;;;;;4.25;3.50;;;;;-143.90;100.00;74450.75;4876947;28;102061;-72
2024/02/07 08:56:17;;;;;;;;;6.00;3.75;;;;;-143.90;100.00;74434.22;4873257;28;102099;-72
2024/02/07 08:58:44;;;;;;;;;9.00;6.00;;;;;-143.90;100.00;74442.50;4874043;28;103521;-74
2024/02/07 09:01:11;;;;;;;;;3.25;3.25;;;;;-143.90;100.00;74450.75;4871346;28;101582;-72
2024/02/07 09:03:38;;;;;;;;;4.00;4.00;;;;;-143.90;100.00;74436.28;4880187;28;101624;-72
2024/02/07 09:06:05;;;;;;;;;7.25;3.75;;;;;-143.90;100.00;74442.50;4860196;28;101796;-72
2024/02/07 09:08:32;;;;;;;;;3.75;3.50;;;;;-143.90;100.00;74452.84;4876690;28;104267;-72
2024/02/07 09:10:58;;;;;;;;;4.25;3.75;;;;;-143.90;100.00;74450.75;4870714;28;102257;-72
2024/02/07 09:13:25;;;;;;;;;4.00;4.00;;;;;-143.90;100.00;74452.84;4870444;28;101980;-72
2024/02/07 09:15:52;;;;;;;;;3.75;3.50;;;;;-143.90;100.00;74444.56;4880316;28;104494;-73
2024/02/07 09:18:22;;;;;;;;;3.50;3.00;;;;;-143.90;100.00;74440.44;4871403;28;103374;-72
2024/02/07 09:20:49;;;;;;;;;4.00;3.00;;;;;-143.90;100.00;74456.97;4876025;28;101976;-72
2024/02/07 09:23:15;;;;;;;;;3.75;3.00;;;;;-143.90;100.00;74469.38;4868760;28;102145;-72
2024/02/07 09:25:42;;;;;;;;;4.00;3.75;;;;;-143.90;100.00;74454.91;4879494;28;101698;-72
2024/02/07 09:28:09;;;;;;;;;5.75;5.00;;;;;-143.90;100.00;74473.50;4872418;28;106886;-72
2024/02/07 09:30:35;;;;;;;;;4.25;3.00;;;;;-143.90;100.00;74471.44;4870939;28;101864;-72
2024/02/07 09:33:02;;;;;;;;;6.00;4.00;;;;;-143.90;100.00;74494.16;4865091;28;102253;-73
2024/02/07 09:35:29;;;;;;;;;6.50;3.75;;;;;-143.90;100.00;74498.31;4868783;28;102090;-73
2024/02/07 09:37:56;;;;;;;;;7.25;6.00;;;;;-143.90;100.00;74496.25;4874118;28;103350;-73
2024/02/07 09:40:23;;;;;;;;;7.75;6.50;;;;;-143.90;100.00;74502.44;4876225;28;101511;-72
2024/02/07 09:42:51;;;;;;;;;6.25;6.00;;;;;-143.90;100.00;74512.78;4875073;28;102735;-71
2024/02/07 09:45:19;;;;;;;;;6.00;4.00;;;;;-143.90;100.00;74498.31;4884005;28;101806;-72
2024/02/07 09:48:04;;;;;;;;;7.00;6.00;;;;;-143.90;100.00;74494.16;4869893;28;104097;-72
2024/02/07 09:50:33;;;;;;;;;6.00;5.50;;;;;-143.90;100.00;74500.38;4876674;28;102122;-72
2024/02/07 09:53:01;;;;;;;;;5.75;4.00;;;;;-143.90;100.00;74477.63;4869563;28;101832;-73
2024/02/07 09:55:28;;;;;;;;;6.00;4.00;;;;;-143.90;100.00;74473.50;4878645;28;102320;-72
2024/02/07 09:57:56;;;;;;;;;6.00;6.00;;;;;-143.90;100.00;74465.22;4876721;28;103777;-72
2024/02/07 10:00:23;;;;;;;;;4.00;3.75;;;;;-143.90;100.00;74467.31;4876605;28;101869;-72
2024/02/07 10:02:53;;;;;;;;;5.75;4.50;;;;;-143.90;100.00;74456.97;4872654;28;101638;-73
2024/02/07 10:05:27;;;;;;;;;5.00;4.00;;;;;-143.90;100.00;74452.84;4874501;28;101828;-72
2024/02/07 10:07:54;;;;;;;;;3.50;3.50;;;;;-143.90;100.00;74452.84;4875319;28;103436;-73
2024/02/07 10:10:21;;;;;;;;;5.75;3.75;;;;;-143.90;100.00;74440.44;4874088;28;102032;-72
2024/02/07 10:12:48;;;;;;;;;7.25;4.00;;;;;-143.90;100.00;74436.28;4873713;28;104040;-73
2024/02/07 10:15:15;;;;;;;;;4.50;3.25;;;;;-143.90;100.00;74438.38;4873531;28;101812;-73
2024/02/07 10:17:42;;;;;;;;;7.00;4.00;;;;;-143.90;100.00;74419.75;4874138;28;108151;-73
2024/02/07 10:20:10;;;;;;;;;3.00;2.00;;;;;-143.90;100.00;74432.16;4870406;28;102310;-73
2024/02/07 10:22:41;;;;;;;;;4.25;3.00;;;;;-143.90;100.00;74419.75;4869106;28;101961;-72
2024/02/07 10:25:13;;;;;;;;;6.00;4.50;;;;;-143.90;100.00;74421.81;4866389;28;101978;-72
2024/02/07 10:27:40;;;;;;;;;4.00;4.00;;;;;-143.90;100.00;74407.34;4871606;28;108235;-72
2024/02/07 10:30:09;;;;;;;;;4.00;3.50;;;;;-143.90;100.00;74390.81;4868612;28;101914;-73
2024/02/07 10:32:36;;;;;;;;;3.75;3.00;;;;;-143.90;100.00;74399.09;4872881;28;101681;-72
2024/02/07 10:35:04;;;;;;;;;7.00;4.25;;;;;-143.90;100.00;74390.81;4862324;28;101892;-73
2024/02/07 10:37:43;;;;;;;;;6.75;4.00;;;;;-143.90;100.00;74382.56;4872648;28;103813;-73
2024/02/07 10:40:11;;;;;;;;;6.75;6.25;;;;;-143.90;100.00;74388.75;4882283;28;102008;-73
2024/02/07 10:42:39;;;;;;;;;4.00;3.25;;;;;-143.90;100.00;74386.69;4876750;28;102029;-72
2024/02/07 10:45:08;;;;;;;;;6.00;4.00;;;;;-143.90;100.00;74361.88;4869414;28;102970;-73
2024/02/07 10:47:37;;;;;;;;;7.00;6.00;;;;;-143.90;100.00;74370.16;4879372;28;103445;-73
2024/02/07 10:50:08;;;;;;;;;5.50;5.50;;;;;-143.90;100.00;74372.22;4874478;28;101537;-72
2024/02/07 10:52:37;;;;;;;;;5.00;4.50;;;;;-143.90;100.00;74382.56;4878598;28;102025;-73
2024/02/07 10:55:09;;;;;;;;;4.00;4.00;;;;;-143.90;100.00;74353.63;4867775;28;102208;-73
2024/02/07 10:57:41;;;;;;;;;6.00;4.00;;;;;-143.90;100.00;74361.88;4879107;28;103332;-73
2024/02/07 11:00:09;;;;;;;;;4.00;3.00;;;;;-143.90;100.00;74345.34;4874911;28;101670;-73
2024/02/07 11:02:35;;;;;;;;;3.00;3.00;;;;;-143.90;100.00;74341.22;4875372;28;101776;-72
2024/02/07 11:05:04;;;;;;;;;4.00;4.00;;;;;-143.90;100.00;74330.88;4868631;28;101746;-72
2024/02/07 11:07:32;;;;;;;;;6.00;6.00;;;;;-143.90;100.00;74328.81;4875035;28;104156;-73
2024/02/07 11:10:01;;;;;;;;;5.00;3.75;;;;;-143.90;100.00;74328.81;4874022;28;101966;-72
2024/02/07 11:12:29;;;;;;;;;8.00;4.50;;;;;-143.90;100.00;74324.69;4873410;28;104279;-73
2024/02/07 11:14:58;;;;;;;;;7.00;3.25;;;;;-143.90;100.00;74320.53;4869340;28;101676;-72
2024/02/07 11:17:25;;;;;;;;;4.00;4.00;;;;;-143.90;100.00;74310.22;4867962;28;103415;-73
2024/02/07 11:19:52;;;;;;;;;8.25;6.75;;;;;-143.90;100.00;74310.22;4872319;28;101639;-73
2024/02/07 11:22:33;;;;;;;;;5.50;4.00;;;;;-143.90;100.00;74316.41;4870786;28;101884;-72
2024/02/07 11:25:01;;;;;;;;;5.50;2.00;;;;;-143.90;100.00;74324.69;4865420;28;101647;-73
2024/02/07 11:27:28;;;;;;;;;4.00;4.00;;;;;-143.90;100.00;74324.69;4869127;28;103402;-72
2024/02/07 11:29:55;;;;;;;;;6.00;5.50;;;;;-143.90;100.00;74312.28;4873123;28;101923;-73
2024/02/07 11:32:22;;;;;;;;;7.25;7.00;;;;;-143.90;100.00;74324.69;4868109;28;102111;-72
2024/02/07 11:34:55;;;;;;;;;3.00;2.75;;;;;-143.90;100.00;74322.59;4868911;28;102131;-73
2024/02/07 11:37:32;;;;;;;;;7.00;6.00;;;;;-143.90;100.00;74328.81;4876904;28;103715;-72
2024/02/07 11:40:12;;;;;;;;;6.00;4.75;;;;;-143.90;100.00;74324.69;4875707;28;102096;-73
2024/02/07 11:42:40;;;;;;;;;4.00;4.00;;;;;-143.90;100.00;74299.88;4878709;28;101455;-73
2024/02/07 11:45:15;;;;;;;;;10.50;5.50;;;;;-143.90;100.00;74287.47;4871312;28;102921;-73
2024/02/07 11:47:45;;;;;;;;;6.00;5.00;;;;;-143.90;100.00;74277.13;4875670;28;108184;-73
2024/02/07 11:50:15;;;;;;;;;5.00;4.00;;;;;-143.90;100.00;74291.59;4873732;28;101545;-72
2024/02/07 11:52:45;;;;;;;;;7.00;4.00;;;;;-143.90;100.00;74279.22;4871267;28;102349;-73
2024/02/07 11:55:16;;;;;;;;;3.50;3.00;;;;;-143.90;100.00;74279.22;4848029;28;101886;-73
2024/02/07 11:57:45;;;;;;;;;5.50;4.00;;;;;-143.90;100.00;74277.13;4872734;28;108007;-72
2024/02/07 12:00:15;;;;;;;;;6.00;3.75;;;;;-143.90;100.00;74246.13;4869969;28;101527;-73
2024/02/07 12:02:51;;;;;;;;;7.75;5.00;;;;;-143.90;100.00;74262.66;4873357;28;102190;-72
2024/02/07 12:05:20;;;;;;;;;5.00;5.00;;;;;-143.90;100.00;74262.66;4869170;28;102028;-72
2024/02/07 12:07:48;;;;;;;;;7.25;5.00;;;;;-143.90;100.00;74239.94;4873503;28;103522;-72
2024/02/07 12:10:15;;;;;;;;;4.00;3.00;;;;;-143.90;100.00;74254.41;4874229;28;102781;-71
2024/02/07 12:12:46;;;;;;;;;6.00;4.00;;;;;-143.90;100.00;74242.00;4869026;28;102280;-74